sensor_id;sensor_type;location;lat;lon;timestamp;P1;durP1;ratioP1;P2;durP2;ratioP2
18019;SDS011;9135;48.362;10.878;2022-10-31T00:00:48;3.30;;;3.00;;
18019;SDS011;9135;48.362;10.878;2022-10-31T00:03:15;9.50;;;3.47;;
18019;SDS011;9135;48.362;10.878;2022-10-31T00:05:45;4.13;;;2.80;;
18019;SDS011;9135;48.362;10.878;2022-10-31T00:08:11;4.67;;;2.73;;
18019;SDS011;9135;48.362;10.878;2022-10-31T00:10:40;2.33;;;2.13;;
18019;SDS011;9135;48.362;10.878;2022-10-31T00:13:07;3.37;;;2.70;;
18019;SDS011;9135;48.362;10.878;2022-10-31T00:15:37;5.93;;;2.80;;
18019;SDS011;9135;48.362;10.878;2022-10-31T00:18:03;7.90;;;3.43;;
18019;SDS011;9135;48.362;10.878;2022-10-31T00:20:29;2.63;;;2.33;;
18019;SDS011;9135;48.362;10.878;2022-10-31T00:22:59;2.20;;;2.00;;
18019;SDS011;9135;48.362;10.878;2022-10-31T00:25:26;6.17;;;3.43;;
18019;SDS011;9135;48.362;10.878;2022-10-31T00:27:52;2.97;;;2.63;;
18019;SDS011;9135;48.362;10.878;2022-10-31T00:30:18;3.83;;;2.77;;
18019;SDS011;9135;48.362;10.878;2022-10-31T00:32:44;9.17;;;3.13;;
18019;SDS011;9135;48.362;10.878;2022-10-31T00:35:10;11.93;;;2.83;;
18019;SDS011;9135;48.362;10.878;2022-10-31T00:37:36;4.77;;;3.20;;
18019;SDS011;9135;48.362;10.878;2022-10-31T00:40:02;5.17;;;3.57;;
18019;SDS011;9135;48.362;10.878;2022-10-31T00:42:29;11.73;;;4.00;;
18019;SDS011;9135;48.362;10.878;2022-10-31T00:44:55;7.73;;;4.53;;
18019;SDS011;9135;48.362;10.878;2022-10-31T00:47:21;2.47;;;2.27;;
18019;SDS011;9135;48.362;10.878;2022-10-31T00:49:47;4.77;;;3.10;;
18019;SDS011;9135;48.362;10.878;2022-10-31T00:52:13;6.33;;;3.43;;
18019;SDS011;9135;48.362;10.878;2022-10-31T00:54:39;7.23;;;3.83;;
18019;SDS011;9135;48.362;10.878;2022-10-31T00:57:05;3.30;;;2.57;;
18019;SDS011;9135;48.362;10.878;2022-10-31T00:59:31;2.50;;;2.40;;
18019;SDS011;9135;48.362;10.878;2022-10-31T01:01:57;3.93;;;2.97;;
18019;SDS011;9135;48.362;10.878;2022-10-31T01:04:23;3.10;;;2.80;;
18019;SDS011;9135;48.362;10.878;2022-10-31T01:06:49;2.70;;;2.50;;
18019;SDS011;9135;48.362;10.878;2022-10-31T01:09:15;5.47;;;4.03;;
18019;SDS011;9135;48.362;10.878;2022-10-31T01:11:41;5.37;;;3.00;;
18019;SDS011;9135;48.362;10.878;2022-10-31T01:14:07;5.50;;;3.53;;
18019;SDS011;9135;48.362;10.878;2022-10-31T01:16:34;7.67;;;3.40;;
18019;SDS011;9135;48.362;10.878;2022-10-31T01:19:00;5.50;;;2.87;;
18019;SDS011;9135;48.362;10.878;2022-10-31T01:21:26;5.90;;;3.10;;
18019;SDS011;9135;48.362;10.878;2022-10-31T01:23:53;6.57;;;3.43;;
18019;SDS011;9135;48.362;10.878;2022-10-31T01:26:21;4.10;;;2.63;;
18019;SDS011;9135;48.362;10.878;2022-10-31T01:28:48;3.33;;;2.53;;
18019;SDS011;9135;48.362;10.878;2022-10-31T01:31:14;4.67;;;2.70;;
18019;SDS011;9135;48.362;10.878;2022-10-31T01:33:41;3.10;;;2.90;;
18019;SDS011;9135;48.362;10.878;2022-10-31T01:36:10;2.90;;;2.50;;
18019;SDS011;9135;48.362;10.878;2022-10-31T01:38:37;6.07;;;3.33;;
18019;SDS011;9135;48.362;10.878;2022-10-31T01:41:03;5.77;;;5.13;;
18019;SDS011;9135;48.362;10.878;2022-10-31T01:43:47;4.53;;;3.17;;
18019;SDS011;9135;48.362;10.878;2022-10-31T01:46:13;2.70;;;2.27;;
18019;SDS011;9135;48.362;10.878;2022-10-31T01:48:40;3.13;;;2.93;;
18019;SDS011;9135;48.362;10.878;2022-10-31T01:51:06;3.07;;;2.70;;
18019;SDS011;9135;48.362;10.878;2022-10-31T01:53:33;2.77;;;2.57;;
18019;SDS011;9135;48.362;10.878;2022-10-31T01:56:01;2.63;;;2.53;;
18019;SDS011;9135;48.362;10.878;2022-10-31T01:58:27;13.80;;;3.50;;
18019;SDS011;9135;48.362;10.878;2022-10-31T02:00:55;3.07;;;2.53;;
18019;SDS011;9135;48.362;10.878;2022-10-31T02:03:21;8.10;;;3.40;;
18019;SDS011;9135;48.362;10.878;2022-10-31T02:05:48;2.17;;;2.07;;
18019;SDS011;9135;48.362;10.878;2022-10-31T02:08:20;3.57;;;3.27;;
18019;SDS011;9135;48.362;10.878;2022-10-31T02:10:47;2.53;;;2.33;;
18019;SDS011;9135;48.362;10.878;2022-10-31T02:13:13;4.30;;;3.20;;
18019;SDS011;9135;48.362;10.878;2022-10-31T02:15:40;5.90;;;2.13;;
18019;SDS011;9135;48.362;10.878;2022-10-31T02:18:06;3.50;;;2.10;;
18019;SDS011;9135;48.362;10.878;2022-10-31T02:20:39;7.63;;;2.30;;
18019;SDS011;9135;48.362;10.878;2022-10-31T02:43:47;3.30;;;2.07;;
18019;SDS011;9135;48.362;10.878;2022-10-31T02:46:13;3.00;;;2.63;;
18019;SDS011;9135;48.362;10.878;2022-10-31T02:48:40;9.97;;;3.07;;
18019;SDS011;9135;48.362;10.878;2022-10-31T02:51:07;2.00;;;1.90;;
18019;SDS011;9135;48.362;10.878;2022-10-31T02:53:34;4.73;;;2.20;;
18019;SDS011;9135;48.362;10.878;2022-10-31T02:56:08;4.40;;;2.67;;
18019;SDS011;9135;48.362;10.878;2022-10-31T02:58:38;3.03;;;2.77;;
18019;SDS011;9135;48.362;10.878;2022-10-31T03:04:01;2.33;;;2.23;;
18019;SDS011;9135;48.362;10.878;2022-10-31T03:06:33;5.77;;;2.43;;
18019;SDS011;9135;48.362;10.878;2022-10-31T03:09:03;2.30;;;2.17;;
18019;SDS011;9135;48.362;10.878;2022-10-31T03:11:37;3.37;;;3.07;;
18019;SDS011;9135;48.362;10.878;2022-10-31T03:14:12;2.50;;;2.30;;
18019;SDS011;9135;48.362;10.878;2022-10-31T03:16:49;4.73;;;2.67;;
18019;SDS011;9135;48.362;10.878;2022-10-31T03:19:22;2.63;;;2.43;;
18019;SDS011;9135;48.362;10.878;2022-10-31T03:22:14;3.43;;;3.23;;
18019;SDS011;9135;48.362;10.878;2022-10-31T03:24:37;2.17;;;1.97;;
18019;SDS011;9135;48.362;10.878;2022-10-31T03:27:04;3.43;;;3.23;;
18019;SDS011;9135;48.362;10.878;2022-10-31T03:29:33;2.00;;;1.90;;
18019;SDS011;9135;48.362;10.878;2022-10-31T03:32:02;2.40;;;2.00;;
18019;SDS011;9135;48.362;10.878;2022-10-31T03:34:29;2.03;;;1.90;;
18019;SDS011;9135;48.362;10.878;2022-10-31T03:36:57;2.27;;;1.97;;
18019;SDS011;9135;48.362;10.878;2022-10-31T03:39:25;2.17;;;2.07;;
18019;SDS011;9135;48.362;10.878;2022-10-31T03:42:34;3.90;;;2.47;;
18019;SDS011;9135;48.362;10.878;2022-10-31T03:44:42;2.13;;;1.97;;
18019;SDS011;9135;48.362;10.878;2022-10-31T03:47:11;6.70;;;2.57;;
18019;SDS011;9135;48.362;10.878;2022-10-31T03:49:38;3.23;;;2.93;;
18019;SDS011;9135;48.362;10.878;2022-10-31T03:52:11;2.93;;;2.43;;
18019;SDS011;9135;48.362;10.878;2022-10-31T03:54:52;3.20;;;1.53;;
18019;SDS011;9135;48.362;10.878;2022-10-31T03:59:45;2.43;;;2.33;;
18019;SDS011;9135;48.362;10.878;2022-10-31T04:02:17;2.53;;;2.10;;
18019;SDS011;9135;48.362;10.878;2022-10-31T04:04:44;1.80;;;1.70;;
18019;SDS011;9135;48.362;10.878;2022-10-31T04:07:11;3.57;;;3.27;;
18019;SDS011;9135;48.362;10.878;2022-10-31T04:09:38;2.63;;;2.03;;
18019;SDS011;9135;48.362;10.878;2022-10-31T04:12:06;2.17;;;1.40;;
18019;SDS011;9135;48.362;10.878;2022-10-31T04:14:34;4.37;;;2.27;;
18019;SDS011;9135;48.362;10.878;2022-10-31T04:17:01;4.57;;;3.03;;
18019;SDS011;9135;48.362;10.878;2022-10-31T04:19:28;3.73;;;3.43;;
18019;SDS011;9135;48.362;10.878;2022-10-31T04:21:54;4.23;;;2.43;;
18019;SDS011;9135;48.362;10.878;2022-10-31T04:24:20;2.83;;;2.63;;
18019;SDS011;9135;48.362;10.878;2022-10-31T04:26:46;3.47;;;2.43;;
18019;SDS011;9135;48.362;10.878;2022-10-31T04:29:13;3.20;;;2.77;;
18019;SDS011;9135;48.362;10.878;2022-10-31T04:31:39;2.07;;;1.97;;
18019;SDS011;9135;48.362;10.878;2022-10-31T04:34:05;2.60;;;2.40;;
18019;SDS011;9135;48.362;10.878;2022-10-31T04:36:32;3.37;;;2.97;;
18019;SDS011;9135;48.362;10.878;2022-10-31T04:38:58;1.93;;;1.50;;
18019;SDS011;9135;48.362;10.878;2022-10-31T04:41:24;3.07;;;2.87;;
18019;SDS011;9135;48.362;10.878;2022-10-31T04:43:50;2.23;;;1.77;;
18019;SDS011;9135;48.362;10.878;2022-10-31T04:46:16;4.67;;;2.77;;
18019;SDS011;9135;48.362;10.878;2022-10-31T04:48:42;4.80;;;2.50;;
18019;SDS011;9135;48.362;10.878;2022-10-31T04:51:08;1.90;;;1.83;;
18019;SDS011;9135;48.362;10.878;2022-10-31T04:53:34;2.07;;;1.97;;
18019;SDS011;9135;48.362;10.878;2022-10-31T04:56:00;2.83;;;2.63;;
18019;SDS011;9135;48.362;10.878;2022-10-31T04:58:26;1.70;;;1.60;;
18019;SDS011;9135;48.362;10.878;2022-10-31T05:00:53;6.20;;;2.20;;
18019;SDS011;9135;48.362;10.878;2022-10-31T05:03:19;2.67;;;2.47;;
18019;SDS011;9135;48.362;10.878;2022-10-31T05:05:45;3.60;;;2.47;;
18019;SDS011;9135;48.362;10.878;2022-10-31T05:08:12;2.93;;;2.10;;
18019;SDS011;9135;48.362;10.878;2022-10-31T05:10:38;2.53;;;2.07;;
18019;SDS011;9135;48.362;10.878;2022-10-31T05:13:04;4.80;;;2.60;;
18019;SDS011;9135;48.362;10.878;2022-10-31T05:15:30;2.33;;;1.90;;
18019;SDS011;9135;48.362;10.878;2022-10-31T05:17:56;2.30;;;2.20;;
18019;SDS011;9135;48.362;10.878;2022-10-31T05:20:26;3.50;;;2.23;;
18019;SDS011;9135;48.362;10.878;2022-10-31T05:22:53;2.67;;;2.47;;
18019;SDS011;9135;48.362;10.878;2022-10-31T05:25:21;2.70;;;2.07;;
18019;SDS011;9135;48.362;10.878;2022-10-31T05:27:48;3.17;;;2.97;;
18019;SDS011;9135;48.362;10.878;2022-10-31T05:30:16;4.30;;;2.63;;
18019;SDS011;9135;48.362;10.878;2022-10-31T05:32:43;1.90;;;1.80;;
18019;SDS011;9135;48.362;10.878;2022-10-31T05:35:10;2.73;;;2.47;;
18019;SDS011;9135;48.362;10.878;2022-10-31T05:37:36;3.77;;;2.37;;
18019;SDS011;9135;48.362;10.878;2022-10-31T05:40:03;2.77;;;2.20;;
18019;SDS011;9135;48.362;10.878;2022-10-31T05:42:30;2.37;;;2.17;;
18019;SDS011;9135;48.362;10.878;2022-10-31T05:44:56;2.00;;;1.90;;
18019;SDS011;9135;48.362;10.878;2022-10-31T05:47:22;2.80;;;2.10;;
18019;SDS011;9135;48.362;10.878;2022-10-31T05:49:48;1.63;;;1.57;;
18019;SDS011;9135;48.362;10.878;2022-10-31T05:52:14;2.23;;;1.93;;
18019;SDS011;9135;48.362;10.878;2022-10-31T05:54:40;2.50;;;2.30;;
18019;SDS011;9135;48.362;10.878;2022-10-31T05:57:06;4.70;;;2.37;;
18019;SDS011;9135;48.362;10.878;2022-10-31T05:59:32;3.87;;;1.83;;
18019;SDS011;9135;48.362;10.878;2022-10-31T06:01:58;3.53;;;1.83;;
18019;SDS011;9135;48.362;10.878;2022-10-31T06:04:24;2.67;;;1.70;;
18019;SDS011;9135;48.362;10.878;2022-10-31T06:06:50;4.47;;;2.63;;
18019;SDS011;9135;48.362;10.878;2022-10-31T06:09:16;3.30;;;2.43;;
18019;SDS011;9135;48.362;10.878;2022-10-31T06:11:42;10.03;;;2.37;;
18019;SDS011;9135;48.362;10.878;2022-10-31T06:14:08;1.87;;;1.77;;
18019;SDS011;9135;48.362;10.878;2022-10-31T06:16:34;4.00;;;3.17;;
18019;SDS011;9135;48.362;10.878;2022-10-31T06:19:00;1.90;;;1.80;;
18019;SDS011;9135;48.362;10.878;2022-10-31T06:21:26;2.50;;;2.30;;
18019;SDS011;9135;48.362;10.878;2022-10-31T06:23:53;4.47;;;3.17;;
18019;SDS011;9135;48.362;10.878;2022-10-31T06:26:19;1.90;;;1.80;;
18019;SDS011;9135;48.362;10.878;2022-10-31T06:28:45;2.20;;;2.00;;
18019;SDS011;9135;48.362;10.878;2022-10-31T06:31:11;3.13;;;2.30;;
18019;SDS011;9135;48.362;10.878;2022-10-31T06:33:37;7.10;;;2.30;;
18019;SDS011;9135;48.362;10.878;2022-10-31T06:36:03;1.77;;;1.67;;
18019;SDS011;9135;48.362;10.878;2022-10-31T06:38:29;2.50;;;2.30;;
18019;SDS011;9135;48.362;10.878;2022-10-31T06:40:55;4.07;;;2.47;;
18019;SDS011;9135;48.362;10.878;2022-10-31T06:43:21;2.73;;;2.53;;
18019;SDS011;9135;48.362;10.878;2022-10-31T06:45:47;1.50;;;1.40;;
18019;SDS011;9135;48.362;10.878;2022-10-31T06:48:13;1.60;;;1.57;;
18019;SDS011;9135;48.362;10.878;2022-10-31T06:50:39;2.07;;;1.90;;
18019;SDS011;9135;48.362;10.878;2022-10-31T06:53:05;1.80;;;1.70;;
18019;SDS011;9135;48.362;10.878;2022-10-31T06:55:31;2.67;;;2.47;;
18019;SDS011;9135;48.362;10.878;2022-10-31T06:57:58;1.30;;;1.30;;
18019;SDS011;9135;48.362;10.878;2022-10-31T07:00:25;2.33;;;1.67;;
18019;SDS011;9135;48.362;10.878;2022-10-31T07:05:20;1.83;;;1.73;;
18019;SDS011;9135;48.362;10.878;2022-10-31T07:07:46;6.17;;;3.60;;
18019;SDS011;9135;48.362;10.878;2022-10-31T07:10:12;2.50;;;2.40;;
18019;SDS011;9135;48.362;10.878;2022-10-31T07:12:38;2.47;;;2.03;;
18019;SDS011;9135;48.362;10.878;2022-10-31T07:15:04;1.80;;;1.70;;
18019;SDS011;9135;48.362;10.878;2022-10-31T07:17:30;3.10;;;2.23;;
18019;SDS011;9135;48.362;10.878;2022-10-31T07:19:56;3.20;;;1.93;;
18019;SDS011;9135;48.362;10.878;2022-10-31T07:22:22;5.93;;;2.73;;
18019;SDS011;9135;48.362;10.878;2022-10-31T07:24:48;2.37;;;2.17;;
18019;SDS011;9135;48.362;10.878;2022-10-31T07:27:14;1.73;;;1.73;;
18019;SDS011;9135;48.362;10.878;2022-10-31T07:29:40;5.23;;;3.13;;
18019;SDS011;9135;48.362;10.878;2022-10-31T07:32:06;1.43;;;1.43;;
18019;SDS011;9135;48.362;10.878;2022-10-31T07:34:32;4.20;;;2.03;;
18019;SDS011;9135;48.362;10.878;2022-10-31T07:36:58;3.23;;;2.33;;
18019;SDS011;9135;48.362;10.878;2022-10-31T07:39:24;2.57;;;2.13;;
18019;SDS011;9135;48.362;10.878;2022-10-31T07:41:50;1.73;;;1.63;;
18019;SDS011;9135;48.362;10.878;2022-10-31T07:44:16;4.63;;;3.17;;
18019;SDS011;9135;48.362;10.878;2022-10-31T07:46:42;2.63;;;2.13;;
18019;SDS011;9135;48.362;10.878;2022-10-31T07:49:08;5.87;;;2.70;;
18019;SDS011;9135;48.362;10.878;2022-10-31T07:51:34;3.13;;;2.20;;
18019;SDS011;9135;48.362;10.878;2022-10-31T07:54:01;1.97;;;1.87;;
18019;SDS011;9135;48.362;10.878;2022-10-31T07:56:27;1.73;;;1.63;;
18019;SDS011;9135;48.362;10.878;2022-10-31T07:58:53;4.97;;;2.33;;
18019;SDS011;9135;48.362;10.878;2022-10-31T08:01:19;1.53;;;1.43;;
18019;SDS011;9135;48.362;10.878;2022-10-31T08:03:45;3.00;;;2.67;;
18019;SDS011;9135;48.362;10.878;2022-10-31T08:06:11;1.73;;;1.63;;
18019;SDS011;9135;48.362;10.878;2022-10-31T08:08:37;6.97;;;1.50;;
18019;SDS011;9135;48.362;10.878;2022-10-31T08:11:03;2.58;;;1.70;;
18019;SDS011;9135;48.362;10.878;2022-10-31T08:13:29;1.80;;;1.67;;
18019;SDS011;9135;48.362;10.878;2022-10-31T08:15:56;1.55;;;1.52;;
18019;SDS011;9135;48.362;10.878;2022-10-31T08:18:28;1.92;;;1.83;;
18019;SDS011;9135;48.362;10.878;2022-10-31T08:20:54;2.50;;;1.77;;
18019;SDS011;9135;48.362;10.878;2022-10-31T08:23:20;2.58;;;1.38;;
18019;SDS011;9135;48.362;10.878;2022-10-31T08:25:46;3.50;;;1.83;;
18019;SDS011;9135;48.362;10.878;2022-10-31T08:28:13;2.20;;;2.03;;
18019;SDS011;9135;48.362;10.878;2022-10-31T08:30:39;2.20;;;2.03;;
18019;SDS011;9135;48.362;10.878;2022-10-31T08:33:12;4.88;;;1.73;;
18019;SDS011;9135;48.362;10.878;2022-10-31T08:35:39;5.05;;;1.90;;
18019;SDS011;9135;48.362;10.878;2022-10-31T08:38:05;3.22;;;2.42;;
18019;SDS011;9135;48.362;10.878;2022-10-31T08:40:33;2.13;;;2.03;;
18019;SDS011;9135;48.362;10.878;2022-10-31T08:45:26;3.67;;;2.38;;
18019;SDS011;9135;48.362;10.878;2022-10-31T08:47:56;1.70;;;1.60;;
18019;SDS011;9135;48.362;10.878;2022-10-31T08:50:22;2.22;;;2.03;;
18019;SDS011;9135;48.362;10.878;2022-10-31T08:52:48;6.43;;;2.13;;
18019;SDS011;9135;48.362;10.878;2022-10-31T08:55:14;1.65;;;1.55;;
18019;SDS011;9135;48.362;10.878;2022-10-31T08:57:40;4.60;;;2.63;;
18019;SDS011;9135;48.362;10.878;2022-10-31T09:00:07;5.40;;;1.83;;
18019;SDS011;9135;48.362;10.878;2022-10-31T09:02:33;3.65;;;2.78;;
18019;SDS011;9135;48.362;10.878;2022-10-31T09:04:59;1.83;;;1.73;;
18019;SDS011;9135;48.362;10.878;2022-10-31T09:07:25;7.43;;;2.88;;
18019;SDS011;9135;48.362;10.878;2022-10-31T09:09:51;3.55;;;2.30;;
18019;SDS011;9135;48.362;10.878;2022-10-31T09:12:17;8.38;;;2.15;;
18019;SDS011;9135;48.362;10.878;2022-10-31T09:14:43;5.95;;;1.83;;
18019;SDS011;9135;48.362;10.878;2022-10-31T09:17:09;6.32;;;2.13;;
18019;SDS011;9135;48.362;10.878;2022-10-31T09:19:35;5.95;;;2.60;;
18019;SDS011;9135;48.362;10.878;2022-10-31T09:22:01;3.65;;;2.42;;
18019;SDS011;9135;48.362;10.878;2022-10-31T09:24:27;5.15;;;2.63;;
18019;SDS011;9135;48.362;10.878;2022-10-31T09:26:53;3.22;;;2.38;;
18019;SDS011;9135;48.362;10.878;2022-10-31T09:29:19;2.97;;;2.08;;
18019;SDS011;9135;48.362;10.878;2022-10-31T09:31:45;3.17;;;2.10;;
18019;SDS011;9135;48.362;10.878;2022-10-31T09:34:11;6.80;;;3.83;;
18019;SDS011;9135;48.362;10.878;2022-10-31T09:36:38;6.65;;;2.70;;
18019;SDS011;9135;48.362;10.878;2022-10-31T09:39:04;5.63;;;2.85;;
18019;SDS011;9135;48.362;10.878;2022-10-31T09:44:20;3.85;;;3.20;;
18019;SDS011;9135;48.362;10.878;2022-10-31T09:49:37;5.35;;;3.60;;
18019;SDS011;9135;48.362;10.878;2022-10-31T09:52:11;4.75;;;3.47;;
18019;SDS011;9135;48.362;10.878;2022-10-31T09:57:15;6.45;;;4.57;;
18019;SDS011;9135;48.362;10.878;2022-10-31T09:59:43;3.92;;;3.20;;
18019;SDS011;9135;48.362;10.878;2022-10-31T10:07:33;5.30;;;3.38;;
18019;SDS011;9135;48.362;10.878;2022-10-31T10:10:05;5.32;;;3.55;;
18019;SDS011;9135;48.362;10.878;2022-10-31T10:17:57;7.03;;;3.78;;
18019;SDS011;9135;48.362;10.878;2022-10-31T10:20:31;4.93;;;2.97;;
18019;SDS011;9135;48.362;10.878;2022-10-31T10:25:33;5.82;;;2.97;;
18019;SDS011;9135;48.362;10.878;2022-10-31T10:28:07;4.53;;;3.88;;
18019;SDS011;9135;48.362;10.878;2022-10-31T10:33:27;6.10;;;3.67;;
18019;SDS011;9135;48.362;10.878;2022-10-31T10:36:00;3.63;;;3.00;;
18019;SDS011;9135;48.362;10.878;2022-10-31T10:38:37;7.50;;;2.65;;
18019;SDS011;9135;48.362;10.878;2022-10-31T10:41:11;3.72;;;2.97;;
18019;SDS011;9135;48.362;10.878;2022-10-31T10:43:39;4.57;;;3.53;;
18019;SDS011;9135;48.362;10.878;2022-10-31T10:51:45;5.25;;;3.95;;
18019;SDS011;9135;48.362;10.878;2022-10-31T10:56:49;5.50;;;3.35;;
18019;SDS011;9135;48.362;10.878;2022-10-31T10:59:18;4.40;;;2.97;;
18019;SDS011;9135;48.362;10.878;2022-10-31T11:01:45;6.82;;;4.18;;
18019;SDS011;9135;48.362;10.878;2022-10-31T11:07:02;7.47;;;3.58;;
18019;SDS011;9135;48.362;10.878;2022-10-31T11:09:28;6.80;;;4.07;;
18019;SDS011;9135;48.362;10.878;2022-10-31T11:11:54;7.63;;;3.42;;
18019;SDS011;9135;48.362;10.878;2022-10-31T11:14:21;5.28;;;3.95;;
18019;SDS011;9135;48.362;10.878;2022-10-31T11:16:49;5.00;;;4.03;;
18019;SDS011;9135;48.362;10.878;2022-10-31T11:19:19;6.60;;;4.32;;
18019;SDS011;9135;48.362;10.878;2022-10-31T11:21:47;8.55;;;4.03;;
18019;SDS011;9135;48.362;10.878;2022-10-31T11:26:39;6.22;;;4.72;;
18019;SDS011;9135;48.362;10.878;2022-10-31T11:29:22;5.85;;;4.05;;
18019;SDS011;9135;48.362;10.878;2022-10-31T11:31:52;6.97;;;4.07;;
18019;SDS011;9135;48.362;10.878;2022-10-31T11:34:29;5.00;;;3.55;;
18019;SDS011;9135;48.362;10.878;2022-10-31T11:36:59;6.88;;;4.50;;
18019;SDS011;9135;48.362;10.878;2022-10-31T11:39:27;9.77;;;4.82;;
18019;SDS011;9135;48.362;10.878;2022-10-31T11:41:54;4.07;;;3.45;;
18019;SDS011;9135;48.362;10.878;2022-10-31T11:44:22;6.75;;;4.15;;
18019;SDS011;9135;48.362;10.878;2022-10-31T11:46:54;4.43;;;4.00;;
18019;SDS011;9135;48.362;10.878;2022-10-31T11:49:30;6.18;;;4.13;;
18019;SDS011;9135;48.362;10.878;2022-10-31T11:51:57;7.53;;;3.28;;
18019;SDS011;9135;48.362;10.878;2022-10-31T11:54:28;7.05;;;4.68;;
18019;SDS011;9135;48.362;10.878;2022-10-31T11:56:55;9.18;;;5.00;;
18019;SDS011;9135;48.362;10.878;2022-10-31T11:59:23;6.20;;;4.75;;
18019;SDS011;9135;48.362;10.878;2022-10-31T12:01:51;7.32;;;4.25;;
18019;SDS011;9135;48.362;10.878;2022-10-31T12:04:17;8.15;;;5.45;;
18019;SDS011;9135;48.362;10.878;2022-10-31T12:06:44;5.82;;;4.22;;
18019;SDS011;9135;48.362;10.878;2022-10-31T12:09:19;6.32;;;4.20;;
18019;SDS011;9135;48.362;10.878;2022-10-31T12:19:16;7.28;;;4.47;;
18019;SDS011;9135;48.362;10.878;2022-10-31T12:35:05;6.95;;;4.68;;
18019;SDS011;9135;48.362;10.878;2022-10-31T12:40:22;5.38;;;4.00;;
18019;SDS011;9135;48.362;10.878;2022-10-31T12:53:18;10.48;;;5.60;;
18019;SDS011;9135;48.362;10.878;2022-10-31T12:56:00;6.05;;;3.88;;
18019;SDS011;9135;48.362;10.878;2022-10-31T12:58:34;5.32;;;4.22;;
18019;SDS011;9135;48.362;10.878;2022-10-31T13:01:06;7.70;;;3.95;;
18019;SDS011;9135;48.362;10.878;2022-10-31T13:06:16;4.93;;;3.92;;
18019;SDS011;9135;48.362;10.878;2022-10-31T13:08:51;6.85;;;4.75;;
18019;SDS011;9135;48.362;10.878;2022-10-31T13:11:22;8.18;;;4.60;;
18019;SDS011;9135;48.362;10.878;2022-10-31T13:14:03;8.13;;;4.57;;
18019;SDS011;9135;48.362;10.878;2022-10-31T13:16:38;4.50;;;4.00;;
18019;SDS011;9135;48.362;10.878;2022-10-31T13:19:18;9.80;;;5.25;;
18019;SDS011;9135;48.362;10.878;2022-10-31T13:21:55;8.02;;;3.42;;
18019;SDS011;9135;48.362;10.878;2022-10-31T13:27:18;9.25;;;4.95;;
18019;SDS011;9135;48.362;10.878;2022-10-31T13:29:50;5.07;;;4.60;;
18019;SDS011;9135;48.362;10.878;2022-10-31T13:32:17;11.45;;;4.20;;
18019;SDS011;9135;48.362;10.878;2022-10-31T13:34:49;7.70;;;4.75;;
18019;SDS011;9135;48.362;10.878;2022-10-31T13:37:29;9.38;;;4.10;;
18019;SDS011;9135;48.362;10.878;2022-10-31T13:40:09;8.23;;;5.60;;
18019;SDS011;9135;48.362;10.878;2022-10-31T13:45:13;9.98;;;5.53;;
18019;SDS011;9135;48.362;10.878;2022-10-31T13:47:40;8.10;;;5.25;;
18019;SDS011;9135;48.362;10.878;2022-10-31T13:52:42;6.78;;;5.18;;
18019;SDS011;9135;48.362;10.878;2022-10-31T13:55:33;9.30;;;5.80;;
18019;SDS011;9135;48.362;10.878;2022-10-31T13:57:54;7.78;;;5.10;;
18019;SDS011;9135;48.362;10.878;2022-10-31T14:02:47;14.90;;;6.78;;
18019;SDS011;9135;48.362;10.878;2022-10-31T14:05:24;8.60;;;5.15;;
18019;SDS011;9135;48.362;10.878;2022-10-31T14:07:51;7.55;;;4.90;;
18019;SDS011;9135;48.362;10.878;2022-10-31T14:10:32;6.80;;;4.25;;
18019;SDS011;9135;48.362;10.878;2022-10-31T14:13:08;7.80;;;4.70;;
18019;SDS011;9135;48.362;10.878;2022-10-31T14:15:38;7.07;;;4.70;;
18019;SDS011;9135;48.362;10.878;2022-10-31T14:18:07;6.47;;;4.93;;
18019;SDS011;9135;48.362;10.878;2022-10-31T14:20:44;5.95;;;4.32;;
18019;SDS011;9135;48.362;10.878;2022-10-31T14:28:43;9.45;;;5.60;;
18019;SDS011;9135;48.362;10.878;2022-10-31T14:36:42;8.73;;;4.93;;
18019;SDS011;9135;48.362;10.878;2022-10-31T14:39:18;8.35;;;5.20;;
18019;SDS011;9135;48.362;10.878;2022-10-31T14:49:35;9.60;;;5.20;;
18019;SDS011;9135;48.362;10.878;2022-10-31T14:52:07;9.68;;;4.65;;
18019;SDS011;9135;48.362;10.878;2022-10-31T14:54:34;5.35;;;4.68;;
18019;SDS011;9135;48.362;10.878;2022-10-31T14:57:04;5.38;;;4.80;;
18019;SDS011;9135;48.362;10.878;2022-10-31T14:59:31;5.70;;;4.70;;
18019;SDS011;9135;48.362;10.878;2022-10-31T15:01:59;8.30;;;5.20;;
18019;SDS011;9135;48.362;10.878;2022-10-31T15:04:26;5.45;;;3.63;;
18019;SDS011;9135;48.362;10.878;2022-10-31T15:10:01;8.13;;;4.82;;
18019;SDS011;9135;48.362;10.878;2022-10-31T15:12:29;7.53;;;5.07;;
18019;SDS011;9135;48.362;10.878;2022-10-31T15:14:55;8.15;;;4.20;;
18019;SDS011;9135;48.362;10.878;2022-10-31T15:17:22;10.32;;;5.00;;
18019;SDS011;9135;48.362;10.878;2022-10-31T15:19:49;10.88;;;5.65;;
18019;SDS011;9135;48.362;10.878;2022-10-31T15:22:16;9.13;;;5.53;;
18019;SDS011;9135;48.362;10.878;2022-10-31T15:24:42;6.05;;;4.72;;
18019;SDS011;9135;48.362;10.878;2022-10-31T15:27:10;4.70;;;4.00;;
18019;SDS011;9135;48.362;10.878;2022-10-31T15:29:46;5.20;;;4.35;;
18019;SDS011;9135;48.362;10.878;2022-10-31T15:32:18;8.02;;;4.70;;
18019;SDS011;9135;48.362;10.878;2022-10-31T15:34:45;6.55;;;3.58;;
18019;SDS011;9135;48.362;10.878;2022-10-31T15:37:12;6.30;;;4.35;;
18019;SDS011;9135;48.362;10.878;2022-10-31T15:39:42;5.60;;;4.65;;
18019;SDS011;9135;48.362;10.878;2022-10-31T15:42:41;6.03;;;4.03;;
18019;SDS011;9135;48.362;10.878;2022-10-31T15:47:38;11.30;;;5.15;;
18019;SDS011;9135;48.362;10.878;2022-10-31T15:50:06;8.10;;;5.10;;
18019;SDS011;9135;48.362;10.878;2022-10-31T15:52:44;6.15;;;4.82;;
18019;SDS011;9135;48.362;10.878;2022-10-31T15:55:21;5.32;;;4.55;;
18019;SDS011;9135;48.362;10.878;2022-10-31T15:57:49;6.80;;;4.80;;
18019;SDS011;9135;48.362;10.878;2022-10-31T16:00:24;7.10;;;4.95;;
18019;SDS011;9135;48.362;10.878;2022-10-31T16:03:00;8.30;;;4.20;;
18019;SDS011;9135;48.362;10.878;2022-10-31T16:05:31;5.55;;;4.15;;
18019;SDS011;9135;48.362;10.878;2022-10-31T16:07:58;8.27;;;5.20;;
18019;SDS011;9135;48.362;10.878;2022-10-31T16:10:24;4.22;;;3.47;;
18019;SDS011;9135;48.362;10.878;2022-10-31T16:12:50;8.43;;;4.97;;
18019;SDS011;9135;48.362;10.878;2022-10-31T16:15:17;7.90;;;5.25;;
18019;SDS011;9135;48.362;10.878;2022-10-31T16:17:45;7.25;;;3.95;;
18019;SDS011;9135;48.362;10.878;2022-10-31T16:20:22;6.03;;;4.80;;
18019;SDS011;9135;48.362;10.878;2022-10-31T16:22:50;7.05;;;4.60;;
18019;SDS011;9135;48.362;10.878;2022-10-31T16:27:53;7.97;;;5.38;;
18019;SDS011;9135;48.362;10.878;2022-10-31T16:30:53;7.93;;;3.90;;
18019;SDS011;9135;48.362;10.878;2022-10-31T16:33:22;6.97;;;4.60;;
18019;SDS011;9135;48.362;10.878;2022-10-31T16:35:49;5.47;;;4.80;;
18019;SDS011;9135;48.362;10.878;2022-10-31T16:38:15;8.40;;;5.22;;
18019;SDS011;9135;48.362;10.878;2022-10-31T16:40:41;5.72;;;4.15;;
18019;SDS011;9135;48.362;10.878;2022-10-31T16:43:09;7.40;;;5.50;;
18019;SDS011;9135;48.362;10.878;2022-10-31T16:45:37;5.00;;;4.47;;
18019;SDS011;9135;48.362;10.878;2022-10-31T16:48:26;4.35;;;3.88;;
18019;SDS011;9135;48.362;10.878;2022-10-31T16:50:52;7.90;;;5.03;;
18019;SDS011;9135;48.362;10.878;2022-10-31T16:55:54;4.07;;;3.53;;
18019;SDS011;9135;48.362;10.878;2022-10-31T16:58:23;5.63;;;4.78;;
18019;SDS011;9135;48.362;10.878;2022-10-31T17:00:49;8.60;;;4.65;;
18019;SDS011;9135;48.362;10.878;2022-10-31T17:03:16;6.85;;;5.22;;
18019;SDS011;9135;48.362;10.878;2022-10-31T17:05:42;6.93;;;4.75;;
18019;SDS011;9135;48.362;10.878;2022-10-31T17:08:08;5.35;;;3.88;;
18019;SDS011;9135;48.362;10.878;2022-10-31T17:10:47;4.55;;;4.10;;
18019;SDS011;9135;48.362;10.878;2022-10-31T17:13:18;6.90;;;4.78;;
18019;SDS011;9135;48.362;10.878;2022-10-31T17:15:45;9.05;;;4.50;;
18019;SDS011;9135;48.362;10.878;2022-10-31T17:18:12;9.25;;;5.43;;
18019;SDS011;9135;48.362;10.878;2022-10-31T17:20:39;5.25;;;4.55;;